createdAt,value
2018-10-01T00:01:49.136Z,38.66
2018-10-01T00:06:52.812Z,38.65
2018-10-01T00:11:56.616Z,38.75
2018-10-01T00:17:00.009Z,38.96
2018-10-01T00:22:08.577Z,38.87
2018-10-01T00:27:12.402Z,38.74
2018-10-01T00:32:15.693Z,38.84
2018-10-01T00:37:19.334Z,38.66
2018-10-01T00:42:22.688Z,38.98
2018-10-01T00:47:26.148Z,38.53
2018-10-01T00:52:29.481Z,38.65
2018-10-01T00:57:32.813Z,38.94
2018-10-01T01:02:36.116Z,38.87
2018-10-01T01:07:39.406Z,38.92
2018-10-01T01:12:42.818Z,38.75
2018-10-01T01:17:46.128Z,38.99
2018-10-01T01:22:49.441Z,38.63
2018-10-01T01:27:52.759Z,38.60
2018-10-01T01:32:56.061Z,38.75
2018-10-01T01:37:59.357Z,38.57
2018-10-01T01:43:02.668Z,38.64
2018-10-01T01:48:06.090Z,38.89
2018-10-01T01:53:10.661Z,38.69
2018-10-01T01:58:13.954Z,39.02
2018-10-01T02:03:17.258Z,38.83
2018-10-01T02:08:20.551Z,39.04
2018-10-01T02:13:23.845Z,38.57
2018-10-01T02:18:27.125Z,39.16
2018-10-01T02:23:30.409Z,38.73
2018-10-01T02:28:33.708Z,38.63
2018-10-01T02:33:37.009Z,38.70
2018-10-01T02:38:40.296Z,38.70
2018-10-01T02:43:43.589Z,39.08
2018-10-01T02:48:46.921Z,39.21
2018-10-01T02:53:55.469Z,38.97
2018-10-01T02:58:58.757Z,38.56
2018-10-01T03:04:02.049Z,38.87
2018-10-01T03:09:09.338Z,38.65
2018-10-01T03:14:12.967Z,38.72
2018-10-01T03:19:16.280Z,38.86
2018-10-01T03:24:19.593Z,39.19
2018-10-01T03:29:22.891Z,38.61
2018-10-01T03:34:26.189Z,39.14
2018-10-01T03:39:29.494Z,39.02
2018-10-01T03:44:32.781Z,39.12
2018-10-01T03:49:36.104Z,39.84
2018-10-01T03:54:39.370Z,39.16
2018-10-01T03:59:42.643Z,38.52
2018-10-01T04:04:45.925Z,39.07
2018-10-01T04:09:49.210Z,39.75
2018-10-01T04:14:52.550Z,40.26
2018-10-01T04:19:55.871Z,40.23
2018-10-01T04:24:59.166Z,40.40
2018-10-01T04:30:02.607Z,40.35
2018-10-01T04:35:05.956Z,40.50
2018-10-01T04:40:09.240Z,40.52
2018-10-01T04:45:12.577Z,40.58
2018-10-01T04:50:15.852Z,40.84
2018-10-01T04:55:19.154Z,40.84
2018-10-01T05:00:22.822Z,40.76
2018-10-01T05:05:26.096Z,40.70
2018-10-01T05:10:29.393Z,41.05
2018-10-01T05:15:32.697Z,40.73
2018-10-01T05:20:36.000Z,41.11
2018-10-01T05:25:39.303Z,40.95
2018-10-01T05:30:42.592Z,41.22
2018-10-01T05:35:45.873Z,40.77
2018-10-01T05:40:49.191Z,41.10
2018-10-01T05:45:52.480Z,41.19
2018-10-01T05:50:55.781Z,41.15
2018-10-01T05:55:59.088Z,40.93
2018-10-01T06:01:02.391Z,40.88
2018-10-01T06:06:05.702Z,40.84
2018-10-01T06:11:09.013Z,41.38
2018-10-01T06:16:12.283Z,40.78
2018-10-01T06:21:15.539Z,33.63
2018-10-01T06:26:18.803Z,32.14
2018-10-01T06:31:22.099Z,32.21
2018-10-01T06:36:25.450Z,32.54
2018-10-01T06:41:28.806Z,33.02
2018-10-01T06:46:32.040Z,33.56
2018-10-01T06:51:42.176Z,34.42
2018-10-01T06:56:45.463Z,34.55
2018-10-01T07:01:48.759Z,34.89
2018-10-01T07:06:52.067Z,35.29
2018-10-01T07:11:55.348Z,34.94
2018-10-01T07:16:58.703Z,35.32
2018-10-01T07:22:02.070Z,35.87
2018-10-01T07:27:05.353Z,34.10
2018-10-01T07:32:08.641Z,34.45
2018-10-01T07:37:11.957Z,34.95
2018-10-01T07:42:15.260Z,34.83
2018-10-01T07:47:18.557Z,35.19
2018-10-01T07:52:21.836Z,35.64
2018-10-01T07:57:25.138Z,35.60
2018-10-01T08:02:28.473Z,35.53
2018-10-01T08:07:31.692Z,35.60
2018-10-01T08:12:34.964Z,35.51
2018-10-01T08:17:38.221Z,35.91
2018-10-01T08:22:41.496Z,35.87
2018-10-01T08:27:44.753Z,35.91
2018-10-01T08:32:48.020Z,35.78
2018-10-01T08:37:51.580Z,36.39
2018-10-01T08:42:55.216Z,36.39
2018-10-01T08:47:58.609Z,36.13
2018-10-01T08:53:07.412Z,36.22
2018-10-01T08:58:10.611Z,36.12
2018-10-01T09:03:13.985Z,36.16
2018-10-01T09:08:17.252Z,36.38
2018-10-01T09:13:20.512Z,36.40
2018-10-01T09:18:23.772Z,36.38
2018-10-01T09:23:27.047Z,36.78
2018-10-01T09:28:30.311Z,36.80
2018-10-01T09:33:33.581Z,36.85
2018-10-01T09:38:36.893Z,36.70
2018-10-01T09:43:40.131Z,36.86
2018-10-01T09:48:43.433Z,36.78
2018-10-01T09:53:46.710Z,36.71
2018-10-01T09:58:49.981Z,36.89
2018-10-01T10:03:53.308Z,37.58
2018-10-01T10:08:56.531Z,37.43
2018-10-01T10:13:59.849Z,37.90
2018-10-01T10:19:03.237Z,37.15
2018-10-01T10:24:06.720Z,37.08
2018-10-01T10:29:09.984Z,37.56
2018-10-01T10:34:13.253Z,37.81
2018-10-01T10:39:16.556Z,37.49
2018-10-01T10:44:19.862Z,36.79
2018-10-01T10:49:23.128Z,36.90
2018-10-01T10:54:26.383Z,36.63
2018-10-01T10:59:29.635Z,36.68
2018-10-01T11:04:32.901Z,36.83
2018-10-01T11:09:36.179Z,36.84
2018-10-01T11:14:39.526Z,37.38
2018-10-01T11:19:42.752Z,37.72
2018-10-01T11:24:46.024Z,37.66
2018-10-01T11:29:49.300Z,37.67
2018-10-01T11:34:53.073Z,38.13
2018-10-01T11:39:56.289Z,37.79
2018-10-01T11:44:59.564Z,37.83
2018-10-01T11:50:02.940Z,38.20
2018-10-01T11:55:06.576Z,38.24
2018-10-01T12:00:10.365Z,38.41
2018-10-01T12:05:13.632Z,38.44
2018-10-01T12:10:16.957Z,38.13
2018-10-01T12:15:20.231Z,38.51
2018-10-01T12:20:23.460Z,38.58
2018-10-01T12:25:26.713Z,38.14
2018-10-01T12:30:30.245Z,38.70
2018-10-01T12:35:33.503Z,38.21
2018-10-01T12:40:36.779Z,38.49
2018-10-01T12:45:40.091Z,38.70
2018-10-01T12:50:43.376Z,38.52
2018-10-01T12:55:46.656Z,38.49
2018-10-01T13:00:49.940Z,38.45
2018-10-01T13:05:53.297Z,38.34
2018-10-01T13:10:56.588Z,38.69
2018-10-01T13:16:00.092Z,38.81
2018-10-01T13:21:03.385Z,38.79
2018-10-01T13:26:06.718Z,38.79
2018-10-01T13:31:10.052Z,38.87
2018-10-01T13:36:13.397Z,38.54
2018-10-01T13:41:16.800Z,39.02
2018-10-01T13:46:20.100Z,38.89
2018-10-01T13:51:23.421Z,39.02
2018-10-01T13:56:26.971Z,38.99
2018-10-01T14:01:30.333Z,39.42
2018-10-01T14:06:34.181Z,39.27
2018-10-01T14:11:38.365Z,39.50
2018-10-01T14:16:41.661Z,39.57
2018-10-01T14:21:44.987Z,39.51
2018-10-01T14:26:48.281Z,39.71
2018-10-01T14:31:51.588Z,39.66
2018-10-01T14:36:54.884Z,39.56
2018-10-01T14:41:58.238Z,39.41
2018-10-01T14:47:01.540Z,39.69
2018-10-01T14:52:04.822Z,39.70
2018-10-01T14:57:08.121Z,39.32
2018-10-01T15:02:11.399Z,39.68
2018-10-01T15:07:14.861Z,39.48
2018-10-01T15:12:18.295Z,39.86
2018-10-01T15:17:21.510Z,39.85
2018-10-01T15:22:25.032Z,39.71
2018-10-01T15:27:28.345Z,39.63
2018-10-01T15:32:31.640Z,39.48
2018-10-01T15:37:34.989Z,39.85
2018-10-01T15:42:38.322Z,39.66
2018-10-01T15:47:42.186Z,39.62
2018-10-01T15:52:45.704Z,39.79
2018-10-01T15:57:48.983Z,40.08
2018-10-01T16:02:52.425Z,40.26
2018-10-01T16:07:55.812Z,40.71
2018-10-01T16:12:59.196Z,41.72
2018-10-01T16:18:02.512Z,41.73
2018-10-01T16:23:05.804Z,42.13
2018-10-01T16:28:09.093Z,41.94
2018-10-01T16:33:12.509Z,41.76
2018-10-01T16:38:15.812Z,42.09
2018-10-01T16:43:19.465Z,41.92
2018-10-01T16:48:23.742Z,41.31
2018-10-01T16:53:27.264Z,41.55
2018-10-01T16:58:30.666Z,41.13
2018-10-01T17:03:34.097Z,40.87
2018-10-01T17:08:37.961Z,40.92
2018-10-01T17:13:41.441Z,40.89
2018-10-01T17:18:44.656Z,41.09
2018-10-01T17:23:48.105Z,40.45
2018-10-01T17:28:51.576Z,40.30
2018-10-01T17:33:54.856Z,40.23
2018-10-01T17:38:58.154Z,40.27
2018-10-01T17:44:02.300Z,40.49
2018-10-01T17:49:05.603Z,40.85
2018-10-01T17:54:08.912Z,40.75
2018-10-01T17:59:12.215Z,40.81
2018-10-01T18:04:15.584Z,40.92
2018-10-01T18:09:18.989Z,40.89
2018-10-01T18:14:22.424Z,40.31
2018-10-01T18:19:25.711Z,40.38
2018-10-01T18:24:29.042Z,40.75
2018-10-01T18:29:32.478Z,40.64
2018-10-01T18:34:35.899Z,40.89
2018-10-01T18:39:39.360Z,40.86
2018-10-01T18:44:42.884Z,40.72
2018-10-01T18:49:46.283Z,40.43
2018-10-01T18:54:49.553Z,40.61
2018-10-01T18:59:52.876Z,40.73
2018-10-01T19:04:56.133Z,40.54
2018-10-01T19:09:59.412Z,40.48
2018-10-01T19:15:02.946Z,40.74
2018-10-01T19:20:06.128Z,40.19
2018-10-01T19:25:09.564Z,40.36
2018-10-01T19:30:13.060Z,40.25
2018-10-01T19:35:16.328Z,40.06
2018-10-01T19:40:19.601Z,40.48
2018-10-01T19:45:22.876Z,39.97
2018-10-01T19:50:26.159Z,40.43
2018-10-01T19:55:29.556Z,39.96
2018-10-01T20:00:32.903Z,40.35
2018-10-01T20:05:36.137Z,40.16
2018-10-01T20:10:39.411Z,40.65
2018-10-01T20:15:42.684Z,40.61
2018-10-01T20:20:45.998Z,40.71
2018-10-01T20:25:49.328Z,40.44
2018-10-01T20:30:52.576Z,40.84
2018-10-01T20:35:56.024Z,40.68
2018-10-01T20:40:59.220Z,40.76
2018-10-01T20:46:02.487Z,40.56
2018-10-01T20:51:05.809Z,40.63
2018-10-01T20:56:09.103Z,40.72
2018-10-01T21:01:12.376Z,41.09
2018-10-01T21:06:15.639Z,40.99
2018-10-01T21:11:18.913Z,40.86
2018-10-01T21:16:22.171Z,41.05
2018-10-01T21:21:25.442Z,40.76
2018-10-01T21:26:28.716Z,40.98
2018-10-01T21:31:32.021Z,41.08
2018-10-01T21:36:35.329Z,40.92
2018-10-01T21:41:38.641Z,41.10
2018-10-01T21:46:41.912Z,41.15
2018-10-01T21:51:45.221Z,41.01
2018-10-01T21:56:48.496Z,41.20
2018-10-01T22:01:56.087Z,41.34
2018-10-01T22:06:59.347Z,40.82
2018-10-01T22:12:02.628Z,40.87
2018-10-01T22:17:05.903Z,41.23
2018-10-01T22:22:09.589Z,41.39
2018-10-01T22:27:12.919Z,40.95
2018-10-01T22:32:16.302Z,41.21
2018-10-01T22:37:19.659Z,41.02
2018-10-01T22:42:22.952Z,40.79
2018-10-01T22:47:26.332Z,41.02
2018-10-01T22:52:29.596Z,40.88
2018-10-01T22:57:32.934Z,41.26
2018-10-01T23:02:36.255Z,41.31
2018-10-01T23:07:39.512Z,41.02
2018-10-01T23:12:42.771Z,40.92
2018-10-01T23:17:46.031Z,41.39
2018-10-01T23:22:49.499Z,40.82
2018-10-01T23:27:52.763Z,41.38
2018-10-01T23:32:56.019Z,41.09
2018-10-01T23:37:59.284Z,40.95
2018-10-01T23:43:02.567Z,41.46
2018-10-01T23:48:06.055Z,40.94
2018-10-01T23:53:09.315Z,41.53
2018-10-01T23:58:12.577Z,41.24
